createdAt,value
2022-12-23T00:02:13.925Z,99561.91
2022-12-23T00:05:16.657Z,99559.25
2022-12-23T00:08:20.310Z,99563.66
2022-12-23T00:11:22.815Z,99554.88
2022-12-23T00:14:44.388Z,99564.53
2022-12-23T00:17:47.008Z,99567.19
2022-12-23T00:20:49.807Z,99563.66
2022-12-23T00:23:52.532Z,99574.22
2022-12-23T00:26:55.606Z,99575.09
2022-12-23T00:29:58.098Z,99576.00
2022-12-23T00:33:01.530Z,99568.06
2022-12-23T00:36:15.458Z,99574.22
2022-12-23T00:39:37.279Z,99573.34
2022-12-23T00:42:54.701Z,99582.16
2022-12-23T00:45:58.035Z,99577.75
2022-12-23T00:49:19.121Z,99577.75
2022-12-23T00:52:22.227Z,99583.91
2022-12-23T00:55:24.952Z,99587.44
2022-12-23T00:58:28.076Z,99595.34
2022-12-23T01:01:49.377Z,99588.31
2022-12-23T01:05:10.603Z,99598.00
2022-12-23T01:08:13.065Z,99591.84
2022-12-23T01:11:16.469Z,99594.47
2022-12-23T01:14:19.024Z,99607.66
2022-12-23T01:17:21.988Z,99611.19
2022-12-23T01:20:25.272Z,99605.91
2022-12-23T01:23:28.098Z,99613.81
2022-12-23T01:26:30.639Z,99613.84
2022-12-23T01:29:33.672Z,99611.22
2022-12-23T01:32:36.749Z,99610.31
2022-12-23T01:35:39.747Z,99610.34
2022-12-23T01:38:42.188Z,99612.94
2022-12-23T01:42:03.598Z,99607.66
2022-12-23T01:45:25.791Z,99607.66
2022-12-23T01:48:28.843Z,99608.53
2022-12-23T01:51:31.949Z,99604.16
2022-12-23T01:54:36.042Z,99612.94
2022-12-23T01:57:41.613Z,99620.00
2022-12-23T02:01:04.658Z,99628.78
2022-12-23T02:04:10.626Z,99634.09
2022-12-23T02:07:32.746Z,99627.91
2022-12-23T02:11:06.541Z,99632.31
2022-12-23T02:14:52.239Z,99635.81
2022-12-23T02:18:25.145Z,99638.47
2022-12-23T02:22:09.217Z,99641.13
2022-12-23T02:25:40.854Z,99621.75
2022-12-23T02:29:01.632Z,99640.22
2022-12-23T02:32:17.685Z,99640.22
2022-12-23T02:35:46.745Z,99643.75
2022-12-23T02:39:20.730Z,99656.09
2022-12-23T02:42:30.840Z,99657.84
2022-12-23T02:45:40.846Z,99671.06
2022-12-23T02:48:57.682Z,99674.56
2022-12-23T02:52:04.269Z,99671.91
2022-12-23T02:55:12.201Z,99671.03
2022-12-23T02:58:16.816Z,99671.03
2022-12-23T03:01:20.436Z,99668.38
2022-12-23T03:04:22.936Z,99679.84
2022-12-23T03:07:35.425Z,99672.78
2022-12-23T03:11:02.469Z,99677.22
2022-12-23T03:14:22.502Z,99682.50
2022-12-23T03:17:55.907Z,99678.09
2022-12-23T03:21:09.337Z,99679.84
2022-12-23T03:24:26.669Z,99670.16
2022-12-23T03:27:41.822Z,99676.34
2022-12-23T03:30:51.091Z,99683.38
2022-12-23T03:33:58.652Z,99681.59
2022-12-23T03:37:03.748Z,99682.47
2022-12-23T03:40:12.099Z,99678.94
2022-12-23T03:43:27.994Z,99674.56
2022-12-23T03:46:42.007Z,99683.38
2022-12-23T03:49:53.469Z,99682.47
2022-12-23T03:53:01.311Z,99690.41
2022-12-23T03:56:08.155Z,99690.41
2022-12-23T03:59:32.226Z,99683.34
2022-12-23T04:02:46.618Z,99686.00
2022-12-23T04:05:58.009Z,99685.13
2022-12-23T04:09:01.527Z,99686.88
2022-12-23T04:12:05.058Z,99686.88
2022-12-23T04:15:12.756Z,99689.53
2022-12-23T04:18:16.790Z,99678.97
2022-12-23T04:21:19.327Z,99682.47
2022-12-23T04:24:22.698Z,99690.41
2022-12-23T04:27:25.317Z,99686.84
2022-12-23T04:30:33.936Z,99690.38
2022-12-23T04:33:37.070Z,99692.13
2022-12-23T04:36:40.048Z,99696.50
2022-12-23T04:39:42.525Z,99687.72
2022-12-23T04:42:45.399Z,99692.09
2022-12-23T04:45:51.488Z,99703.53
2022-12-23T04:48:54.438Z,99700.00
2022-12-23T04:51:56.878Z,99694.72
2022-12-23T04:54:59.614Z,99704.41
2022-12-23T04:58:02.267Z,99702.63
2022-12-23T05:01:07.629Z,99697.34
2022-12-23T05:04:11.052Z,99713.16
2022-12-23T05:07:13.809Z,99727.16
2022-12-23T05:10:16.865Z,99727.16
2022-12-23T05:13:19.733Z,99721.00
2022-12-23T05:16:22.520Z,99721.88
2022-12-23T05:19:25.568Z,99725.34
2022-12-23T05:22:28.081Z,99710.38
2022-12-23T05:25:30.882Z,99712.09
2022-12-23T05:28:33.566Z,99715.59
2022-12-23T05:31:36.605Z,99717.31
2022-12-23T05:34:39.219Z,99716.44
2022-12-23T05:37:42.136Z,99714.69
2022-12-23T05:40:44.619Z,99720.84
2022-12-23T05:43:47.700Z,99727.00
2022-12-23T05:46:50.355Z,99732.25
2022-12-23T05:49:53.198Z,99731.41
2022-12-23T05:52:58.385Z,99737.47
2022-12-23T05:56:04.813Z,99733.06
2022-12-23T05:59:07.290Z,99737.47
2022-12-23T06:02:10.525Z,99750.63
2022-12-23T06:05:13.392Z,99746.22
2022-12-23T06:08:16.179Z,99751.50
2022-12-23T06:11:19.277Z,99748.00
2022-12-23T06:14:28.357Z,99744.53
2022-12-23T06:17:31.519Z,99755.97
2022-12-23T06:20:34.345Z,99758.63
2022-12-23T06:23:37.018Z,99765.69
2022-12-23T06:26:39.963Z,99769.19
2022-12-23T06:29:42.610Z,99773.53
2022-12-23T06:32:45.993Z,99773.53
2022-12-23T06:35:48.565Z,99780.56
2022-12-23T06:38:51.524Z,99783.25
2022-12-23T06:41:54.109Z,99784.09
2022-12-23T06:44:56.998Z,99783.22
2022-12-23T06:47:59.421Z,99766.53
2022-12-23T06:51:02.499Z,99782.31
2022-12-23T06:54:05.150Z,99783.22
2022-12-23T06:57:08.498Z,99790.22
2022-12-23T07:00:11.603Z,99792.88
2022-12-23T07:03:14.700Z,99803.38
2022-12-23T07:06:17.455Z,99790.19
2022-12-23T07:09:20.223Z,99800.63
2022-12-23T07:12:22.905Z,99801.53
2022-12-23T07:15:25.933Z,99798.03
2022-12-23T07:18:28.477Z,99798.94
2022-12-23T07:21:31.403Z,99795.50
2022-12-23T07:24:33.957Z,99794.66
2022-12-23T07:27:37.063Z,99797.28
2022-12-23T07:30:39.626Z,99792.91
2022-12-23T07:33:42.965Z,99793.75
2022-12-23T07:36:45.443Z,99785.00
2022-12-23T07:39:48.256Z,99784.13
2022-12-23T07:42:53.943Z,99789.38
2022-12-23T07:46:00.219Z,99787.66
2022-12-23T07:49:03.691Z,99795.56
2022-12-23T07:52:06.625Z,99799.97
2022-12-23T07:55:09.465Z,99798.22
2022-12-23T07:58:12.421Z,99794.75
2022-12-23T08:01:15.117Z,99787.69
2022-12-23T08:04:18.519Z,99796.47
2022-12-23T08:07:21.267Z,99795.63
2022-12-23T08:10:24.260Z,99795.56
2022-12-23T08:13:27.217Z,99801.69
2022-12-23T08:16:30.346Z,99805.22
2022-12-23T08:19:32.910Z,99814.88
2022-12-23T08:22:35.978Z,99805.25
2022-12-23T08:25:38.413Z,99798.22
2022-12-23T08:28:42.547Z,99799.06
2022-12-23T08:31:45.216Z,99786.78
2022-12-23T08:34:48.105Z,99792.91
2022-12-23T08:37:50.799Z,99778.00
2022-12-23T08:40:53.631Z,99781.53
2022-12-23T08:43:56.505Z,99787.72
2022-12-23T08:46:59.685Z,99783.31
2022-12-23T08:50:02.921Z,99779.81
2022-12-23T08:53:06.604Z,99768.44
2022-12-23T08:56:12.861Z,99764.84
2022-12-23T08:59:19.676Z,99766.63
2022-12-23T09:02:22.832Z,99754.34
2022-12-23T09:05:26.054Z,99755.22
2022-12-23T09:08:28.678Z,99744.72
2022-12-23T09:11:32.176Z,99746.47
2022-12-23T09:14:34.794Z,99746.53
2022-12-23T09:17:37.988Z,99746.50
2022-12-23T09:20:40.750Z,99746.53
2022-12-23T09:23:43.621Z,99741.25
2022-12-23T09:26:46.216Z,99744.78
2022-12-23T09:29:49.182Z,99746.56
2022-12-23T09:32:51.909Z,99739.53
2022-12-23T09:36:00.418Z,99741.31
2022-12-23T09:39:03.158Z,99741.31
2022-12-23T09:42:18.873Z,99745.75
2022-12-23T09:45:56.611Z,99736.06
2022-12-23T09:49:04.077Z,99723.75
2022-12-23T09:52:09.741Z,99732.53
2022-12-23T09:55:12.992Z,99717.59
2022-12-23T09:58:56.132Z,99720.25
2022-12-23T10:02:18.102Z,99701.78
2022-12-23T10:05:46.568Z,99713.22
2022-12-23T10:08:53.146Z,99707.09
2022-12-23T10:11:55.822Z,99708.88
2022-12-23T10:15:02.455Z,99706.25
2022-12-23T10:18:19.825Z,99690.41
2022-12-23T10:21:46.860Z,99697.47
2022-12-23T10:24:50.727Z,99689.53
2022-12-23T10:27:53.845Z,99686.88
2022-12-23T10:34:55.390Z,99678.06
2022-12-23T10:38:17.048Z,99674.56
2022-12-23T10:41:56.580Z,99678.06
2022-12-23T10:45:04.972Z,99665.75
2022-12-23T10:48:26.026Z,99670.16
2022-12-23T10:51:51.638Z,99667.50
2022-12-23T10:54:55.415Z,99664.88
2022-12-23T10:58:05.691Z,99663.09
2022-12-23T11:01:16.107Z,99653.41
2022-12-23T11:04:31.760Z,99645.53
2022-12-23T11:07:44.792Z,99632.34
2022-12-23T11:10:48.627Z,99649.91
2022-12-23T11:13:51.805Z,99634.06
2022-12-23T11:16:55.234Z,99631.44
2022-12-23T11:20:09.329Z,99627.91
2022-12-23T11:23:29.856Z,99603.28
2022-12-23T11:26:33.355Z,99618.25
2022-12-23T11:29:38.715Z,99617.34
2022-12-23T11:32:43.688Z,99606.78
2022-12-23T11:35:46.813Z,99602.38
2022-12-23T11:39:05.427Z,99590.94
2022-12-23T11:42:17.757Z,99591.81
2022-12-23T11:45:27.406Z,99588.31
2022-12-23T11:48:30.844Z,99597.97
2022-12-23T11:51:34.026Z,99590.94
2022-12-23T11:54:37.465Z,99590.09
2022-12-23T11:57:44.434Z,99583.91
2022-12-23T12:00:59.762Z,99583.00
2022-12-23T12:04:08.595Z,99580.41
2022-12-23T12:07:15.146Z,99581.25
2022-12-23T12:10:28.931Z,99583.00
2022-12-23T12:13:38.600Z,99568.97
2022-12-23T12:16:54.507Z,99565.44
2022-12-23T12:20:05.381Z,99571.59
2022-12-23T12:23:41.066Z,99570.75
2022-12-23T12:26:45.074Z,99562.78
2022-12-23T12:29:53.127Z,99556.66
2022-12-23T12:33:01.569Z,99553.13
2022-12-23T12:36:16.199Z,99558.38
2022-12-23T12:39:25.802Z,99567.19
2022-12-23T12:43:00.311Z,99560.16
2022-12-23T12:46:17.181Z,99572.44
2022-12-23T12:49:32.122Z,99568.06
2022-12-23T12:52:40.370Z,99575.09
2022-12-23T12:55:48.677Z,99564.56
2022-12-23T12:58:51.386Z,99568.09
2022-12-23T13:02:25.278Z,99571.56
2022-12-23T13:05:54.075Z,99568.09
2022-12-23T13:09:28.540Z,99572.50
2022-12-23T13:13:03.623Z,99575.13
2022-12-23T13:16:45.723Z,99568.97
2022-12-23T13:20:00.601Z,99581.28
2022-12-23T13:23:41.652Z,99574.22
2022-12-23T13:26:50.126Z,99571.59
2022-12-23T13:30:17.592Z,99573.34
2022-12-23T13:33:41.672Z,99564.56
2022-12-23T13:37:26.028Z,99564.56
2022-12-23T13:40:52.901Z,99565.41
2022-12-23T13:44:02.060Z,99568.06
2022-12-23T13:47:23.919Z,99562.78
2022-12-23T13:50:38.350Z,99562.81
2022-12-23T13:53:52.783Z,99569.84
2022-12-23T13:57:15.271Z,99564.56
2022-12-23T14:00:17.889Z,99561.03
2022-12-23T14:03:25.088Z,99564.56
2022-12-23T14:06:30.869Z,99554.84
2022-12-23T14:09:37.387Z,99544.31
2022-12-23T14:12:42.767Z,99550.47
2022-12-23T14:15:52.777Z,99554.84
2022-12-23T14:19:05.195Z,99554.84
2022-12-23T14:22:19.993Z,99551.31
2022-12-23T14:25:30.001Z,99553.06
2022-12-23T14:28:53.239Z,99566.28
2022-12-23T14:31:58.397Z,99565.38
2022-12-23T14:35:36.985Z,99565.38
2022-12-23T14:38:43.364Z,99564.50
2022-12-23T14:41:52.377Z,99563.63
2022-12-23T14:44:55.484Z,99575.06
2022-12-23T14:47:58.848Z,99563.63
2022-12-23T14:51:10.590Z,99580.34
2022-12-23T14:54:15.742Z,99582.97
2022-12-23T14:57:19.780Z,99578.56
2022-12-23T15:00:23.166Z,99583.84
2022-12-23T15:03:25.897Z,99577.69
2022-12-23T15:06:43.835Z,99581.22
2022-12-23T15:09:54.522Z,99598.81
2022-12-23T15:13:03.516Z,99590.88
2022-12-23T15:16:06.621Z,99584.69
2022-12-23T15:19:18.968Z,99591.78
2022-12-23T15:22:28.523Z,99593.50
2022-12-23T15:25:46.743Z,99590.00
2022-12-23T15:28:49.515Z,99599.66
2022-12-23T15:31:55.862Z,99601.41
2022-12-23T15:35:06.521Z,99598.75
2022-12-23T15:38:14.337Z,99590.81
2022-12-23T15:41:19.006Z,99590.81
2022-12-23T15:44:25.734Z,99581.16
2022-12-23T15:47:37.103Z,99594.31
2022-12-23T15:50:42.164Z,99587.25
2022-12-23T15:57:04.016Z,99586.38
2022-12-23T16:00:19.279Z,99570.50
2022-12-23T16:03:32.427Z,99589.00
2022-12-23T16:06:36.383Z,99582.78
2022-12-23T16:09:40.383Z,99581.00
2022-12-23T16:12:44.089Z,99583.69
2022-12-23T16:15:47.666Z,99585.44
2022-12-23T16:18:50.283Z,99581.00
2022-12-23T16:21:53.390Z,99584.53
2022-12-23T16:25:18.809Z,99575.69
2022-12-23T16:28:40.646Z,99577.44
2022-12-23T16:31:52.071Z,99588.03
2022-12-23T16:34:57.240Z,99596.84
2022-12-23T16:38:19.504Z,99595.97
2022-12-23T16:41:22.484Z,99589.81
2022-12-23T16:44:25.273Z,99595.09
2022-12-23T16:47:29.880Z,99594.19
2022-12-23T16:50:32.576Z,99603.00
2022-12-23T16:53:35.736Z,99607.41
2022-12-23T16:56:38.919Z,99604.78
2022-12-23T16:59:42.095Z,99606.56
2022-12-23T17:02:45.523Z,99615.38
2022-12-23T17:05:49.196Z,99618.91
2022-12-23T17:08:53.740Z,99621.53
2022-12-23T17:11:57.876Z,99631.28
2022-12-23T17:15:00.445Z,99639.25
2022-12-23T17:18:03.446Z,99640.13
2022-12-23T17:21:06.315Z,99646.31
2022-12-23T17:24:24.353Z,99640.16
2022-12-23T17:27:27.032Z,99638.41
2022-12-23T17:30:30.270Z,99636.66
2022-12-23T17:33:33.650Z,99639.28
2022-12-23T17:36:36.747Z,99641.06
2022-12-23T17:39:40.303Z,99640.16
2022-12-23T17:42:44.320Z,99646.34
2022-12-23T17:45:48.028Z,99653.41
2022-12-23T17:48:51.965Z,99655.19
2022-12-23T17:51:56.093Z,99656.94
2022-12-23T17:54:59.461Z,99661.34
2022-12-23T17:58:04.205Z,99647.25
2022-12-23T18:01:20.520Z,99649.84
2022-12-23T18:04:23.363Z,99646.34
2022-12-23T18:07:27.242Z,99641.06
2022-12-23T18:10:40.034Z,99649.91
2022-12-23T18:13:44.822Z,99662.22
2022-12-23T18:16:48.609Z,99666.63
2022-12-23T18:19:53.461Z,99668.38
2022-12-23T18:23:00.339Z,99667.50
2022-12-23T18:26:04.602Z,99677.19
2022-12-23T18:29:08.284Z,99678.06
2022-12-23T18:32:22.904Z,99672.78
2022-12-23T18:35:31.243Z,99678.06
2022-12-23T18:38:35.642Z,99678.94
2022-12-23T18:41:39.248Z,99700.97
2022-12-23T18:44:46.126Z,99705.34
2022-12-23T18:47:50.363Z,99701.84
2022-12-23T18:50:54.605Z,99716.81
2022-12-23T18:53:57.749Z,99700.97
2022-12-23T18:57:02.219Z,99709.75
2022-12-23T19:00:13.685Z,99719.44
2022-12-23T19:03:31.231Z,99706.25
2022-12-23T19:06:34.172Z,99713.28
2022-12-23T19:09:37.819Z,99716.81
2022-12-23T19:12:40.859Z,99721.22
2022-12-23T19:15:47.805Z,99722.09
2022-12-23T19:18:51.087Z,99714.19
2022-12-23T19:21:54.222Z,99713.31
2022-12-23T19:25:05.274Z,99707.13
2022-12-23T19:28:10.189Z,99711.50
2022-12-23T19:31:15.007Z,99721.22
2022-12-23T19:34:18.428Z,99733.50
2022-12-23T19:37:21.221Z,99743.19
2022-12-23T19:40:24.249Z,99744.94
2022-12-23T19:43:27.023Z,99745.81
2022-12-23T19:46:30.761Z,99750.19
2022-12-23T19:49:34.533Z,99751.94
2022-12-23T19:52:38.464Z,99748.44
2022-12-23T19:55:41.468Z,99757.22
2022-12-23T19:58:45.719Z,99744.91
2022-12-23T20:01:49.211Z,99756.34
2022-12-23T20:04:52.859Z,99768.66
2022-12-23T20:07:55.774Z,99763.38
2022-12-23T20:11:07.442Z,99766.00
2022-12-23T20:14:11.457Z,99762.50
2022-12-23T20:17:15.885Z,99766.91
2022-12-23T20:20:19.803Z,99766.00
2022-12-23T20:23:24.975Z,99755.47
2022-12-23T20:26:29.835Z,99760.72
2022-12-23T20:29:33.659Z,99764.25
2022-12-23T20:32:36.706Z,99773.03
2022-12-23T20:35:39.965Z,99773.91
2022-12-23T20:38:45.159Z,99767.72
2022-12-23T20:41:49.574Z,99783.56
2022-12-23T20:44:54.212Z,99788.84
2022-12-23T20:47:58.123Z,99780.94
2022-12-23T20:51:27.768Z,99778.28
2022-12-23T20:54:33.699Z,99779.13
2022-12-23T20:57:37.707Z,99772.97
2022-12-23T21:00:41.711Z,99776.47
2022-12-23T21:03:45.131Z,99775.63
2022-12-23T21:06:49.031Z,99768.53
2022-12-23T21:09:52.166Z,99775.66
2022-12-23T21:12:55.461Z,99777.41
2022-12-23T21:16:07.257Z,99773.88
2022-12-23T21:19:19.480Z,99766.84
2022-12-23T21:22:22.262Z,99765.97
2022-12-23T21:25:25.621Z,99771.25
2022-12-23T21:28:28.820Z,99771.28
2022-12-23T21:31:34.014Z,99766.88
2022-12-23T21:34:36.783Z,99764.22
2022-12-23T21:37:40.768Z,99780.06
2022-12-23T21:40:44.730Z,99769.50
2022-12-23T21:43:49.742Z,99783.53
2022-12-23T21:46:53.783Z,99782.69
2022-12-23T21:49:57.129Z,99787.97
2022-12-23T21:53:00.193Z,99787.09
2022-12-23T21:56:05.990Z,99790.59
2022-12-23T21:59:12.223Z,99798.53
2022-12-23T22:02:19.480Z,99805.56
2022-12-23T22:05:22.414Z,99802.06
2022-12-23T22:08:25.696Z,99790.63
2022-12-23T22:11:31.115Z,99801.16
2022-12-23T22:14:34.903Z,99792.34
2022-12-23T22:17:38.109Z,99793.19
2022-12-23T22:20:46.328Z,99803.72
2022-12-23T22:23:50.969Z,99802.84
2022-12-23T22:26:54.668Z,99793.19
2022-12-23T22:29:57.789Z,99806.38
2022-12-23T22:33:01.436Z,99799.34
2022-12-23T22:36:04.544Z,99803.75
2022-12-23T22:39:08.283Z,99811.66
2022-12-23T22:42:11.191Z,99811.59
2022-12-23T22:45:14.512Z,99805.50
2022-12-23T22:48:17.712Z,99797.56
2022-12-23T22:51:25.072Z,99798.38
2022-12-23T22:54:27.823Z,99800.09
2022-12-23T22:57:31.493Z,99803.66
2022-12-23T23:00:34.488Z,99793.13
2022-12-23T23:03:37.542Z,99792.25
2022-12-23T23:06:41.960Z,99807.22
2022-12-23T23:09:45.289Z,99807.19
2022-12-23T23:12:48.149Z,99812.50
2022-12-23T23:15:51.430Z,99820.41
2022-12-23T23:18:54.801Z,99812.53
2022-12-23T23:21:57.835Z,99815.19
2022-12-23T23:25:00.722Z,99808.13
2022-12-23T23:28:04.335Z,99813.41
2022-12-23T23:34:31.527Z,99816.06
2022-12-23T23:37:34.260Z,99802.00
2022-12-23T23:40:37.585Z,99810.81
2022-12-23T23:43:40.379Z,99802.00
2022-12-23T23:46:46.228Z,99796.72
2022-12-23T23:49:49.494Z,99802.88
2022-12-23T23:52:53.183Z,99796.63
2022-12-23T23:56:02.070Z,99792.25
2022-12-23T23:59:06.089Z,99779.06
